Tiempo atmosférico en la estación meteorológica de Cáseda, Navarra (440 m.)



Fecha
DESCASC
Temp. máxima en grados centígrados (hora)
DESCASC
Temp. mínima en grados centígrados (hora)
DESCASC
Temp. media en grados centígrados
DESCASC
Racha de viento máxima en m/sg (hora)
DESCASC
Velocidad máxima media en intervalos de 10 minutos(hora)
DESCASC
Precipitaciones diarias en mm
DESCASC
Precipitaciones de 00:00 a 06:00 en mm
DESCASC
Precipitaciones de 06:00 a 12:00 en mm
DESCASC
Precipitaciones de 12:00 a 18:00 en mm
DESCASC
Precipitaciones de 18:00 a 24:00 en mm
DESCASC
05-12-2019 12.4 (15:20) 3.6 (23:59) 8 5 (02:20) 3.33 (02:20) 0 0 0 0 0
04-12-2019 11.4 (17:10) -0.5 (06:50) 5.4 6.94 (19:20) 3.61 (18:50) 0 0 0 0 0
03-12-2019 8.6 (15:00) -0.4 (08:50) 4.1 7.22 (00:50) 4.72 (17:40) 0 0 0 0 0
02-12-2019 11.5 (13:50) 0.5 (00:00) 6 10 (14:20) 5.28 (14:20) 0 0 0 0 0
01-12-2019 9.5 (15:10) 4.6 (00:00) 7 3.61 (01:10) 2.5 (01:10) 0.2 0 0 0.2 0
30-11-2019 14.9 (15:40) 3.7 (00:00) 9.3 10 (18:10) 5.28 (17:00) 13.6 0 0 4 9.6
29-11-2019 15.5 (14:40) 5.3 (00:00) 10.4 6.67 (12:30) 3.89 (12:10) 0.2 0.2 0 0 0
28-11-2019 12.3 (15:50) 6.1 (00:00) 9.2 3.33 (01:00) 2.5 (01:40) 0.8 0 0.2 0 0.6
27-11-2019 14.3 (13:00) 8.6 (00:00) 11.5 12.22 (07:50) 7.5 (07:50) 5.6 1 0 0.6 4
26-11-2019 15.1 (20:20) 3.8 (00:00) 9.5 17.22 (20:20) 11.67 (20:20) 0.8 0 0 0 0.8
25-11-2019 14.9 (15:10) 5.2 (00:00) 10 3.33 (17:10) 2.5 (17:20) 0.2 0.2 0 0 0
24-11-2019 11 (15:10) 5.3 (00:00) 8.2 7.5 (13:50) 4.17 (13:50) 3 1.2 0 0 1.8
23-11-2019 9.5 (00:40) 6.5 (00:00) 8 14.17 (07:50) 7.22 (07:50) 8.2 0.4 6 1.6 0.2
22-11-2019 10.7 (21:40) 3.9 (00:00) 7.3 16.67 (21:10) 11.11 (21:10) 10.6 0 4.8 2 3.8
21-11-2019 11.6 (14:20) 4 (00:00) 7.8 7.5 (15:30) 5 (15:50) 0.8 0.8 0 0 0
20-11-2019 11.1 (15:10) -0.6 (-00:0) 5.3 8.61 (14:30) 5.28 (15:20) 1.2 0 0 0 1.2
19-11-2019 10.7 (14:40) 1.8 (00:00) 6.2 6.94 (07:20) 4.17 (06:30) 0 0 0 0 0
18-11-2019 7.5 (10:50) 2.8 (00:00) 5.1 11.67 (13:40) 6.67 (13:40) 0 0 0 0 0
17-11-2019 8 (15:40) 1.2 (00:00) 4.6 2.5 (20:40) 1.67 (19:10) 1.2 0 0 0.6 0.6
16-11-2019 4.7 (15:10) 0.5 (00:00) 2.6 4.17 (00:10) 2.5 (00:10) 2.4 0 0 2.2 0.2
15-11-2019 6.9 (14:10) 1.4 (00:00) 4.2 14.72 (11:50) 8.61 (12:00) 2.4 0 1.4 1 0
14-11-2019 10.7 (14:40) 3.4 (00:00) 7 10.28 (15:00) 5 (15:00) 5.6 4.8 0.6 0.2 0
13-11-2019 12.3 (13:00) 4.6 (00:00) 8.5 11.67 (14:40) 5.56 (15:10) 1.6 1.2 0.4 0 0
12-11-2019 11.5 (13:00) 6.5 (00:00) 9 9.17 (00:10) 5.56 (00:10) 0 0 0 0 0
11-11-2019 9.3 (15:50) 3 (05:30) 6.2 15 (17:30) 7.5 (16:00) 1.2 0 0.2 1 0
10-11-2019 6.4 (00:00) 2.7 (00:00) 4.6 10.56 (03:30) 5.28 (03:40) 17 6 9.2 1.8 0
09-11-2019 10.8 (15:20) 5.5 (00:00) 8.2 9.72 (22:20) 5 (15:30) 4.6 2 0.2 0.6 1.8
08-11-2019 7 (13:20) 1.2 (00:00) 4.1 11.94 (14:20) 6.67 (14:20) 18 0.4 1 5.6 11

Gráficas

Temp. máximas Temp. mínimas Temp. medias Precipitaciones Rachas de viento máximas Velocidades máximas media en intervalos de 10 minutos

Datos horarios

Fecha y hora oficial Temperatura (ºC) Velocidad del viento (km/h) Dirección del viento Racha (km/h) Dirección de racha Precipitación (mm) Presión (hPa) Tendencia (hPa) Humedad (%)
2019-12-07 23:00:00 3.6 4 Oeste 5 Sudoeste 0 -- -- 96
2019-12-07 22:00:00 4.1 2 Oeste 5 Noroeste 0 -- -- 96
2019-12-07 21:00:00 4.9 0 Calma 5 Sudeste 0 -- -- 95
2019-12-07 20:00:00 4.9 3 Sudeste 5 Sur 0 -- -- 93
2019-12-07 19:00:00 5.9 2 Sur 5 Sur 0 -- -- 94
2019-12-07 18:00:00 6.3 4 Sur 6 Sur 0 -- -- 91
2019-12-07 17:00:00 7 2 Sudoeste 3 Sudoeste 0 -- -- 88
2019-12-07 16:00:00 7.2 2 Nordeste 4 Nordeste 0 -- -- 87
2019-12-07 15:00:00 6.9 3 Nordeste 5 Nordeste 0 -- -- 88
2019-12-07 14:00:00 4.9 2 Nordeste 6 Nordeste 0 -- -- 96
2019-12-07 13:00:00 4.3 3 Nordeste 9 Nordeste 0 -- -- 98
2019-12-07 12:00:00 3.9 3 Nordeste 7 Este 0 -- -- 98
2019-12-07 11:00:00 2.6 0 Calma 6 Norte 0 -- -- 98
2019-12-07 10:00:00 2.3 2 Noroeste 6 Oeste 0 -- -- 98
2019-12-07 09:00:00 2.1 4 Oeste 9 Noroeste 0 -- -- 98
2019-12-07 08:00:00 2.3 2 Norte 6 Noroeste 0 -- -- 98
2019-12-07 07:00:00 2.3 3 Noroeste 5 Noroeste 0 -- -- 98
2019-12-07 06:00:00 1.8 3 Sudoeste 5 Sudoeste 0 -- -- 98
2019-12-07 05:00:00 1.7 0 Calma 7 Sur 0 -- -- 97
2019-12-07 04:00:00 1.9 7 Sur 9 Sur 0 -- -- 97
2019-12-07 03:00:00 1.7 3 Este 6 Sudeste 0 -- -- 96
2019-12-07 02:00:00 2 3 Sur 6 Sudeste 0 -- -- 96
2019-12-07 01:00:00 3 0 Calma 12 Sur 0 -- -- 95
2019-12-07 00:00:00 3.6 6 Sur 8 Sur 0 -- -- 95
2019-12-06 23:00:00 4.3 5 Sudoeste 8 Sur 0 -- -- 94
2019-12-06 22:00:00 4.9 0 Calma 7 Sur 0 -- -- 91
2019-12-06 21:00:00 6.1 3 Sudoeste 5 Sudoeste 0 -- -- 90
2019-12-06 20:00:00 6.7 2 Nordeste 7 Sudeste 0 -- -- 90
2019-12-06 19:00:00 7.7 2 Este 8 Sur 0 -- -- 86
2019-12-06 18:00:00 8.9 3 Nordeste 10 Sur 0 -- -- 82
2019-12-06 17:00:00 10.4 3 Sudoeste 6 Sudoeste 0 -- -- 77
2019-12-06 16:00:00 11.3 2 Noroeste 4 Norte 0 -- -- 71
2019-12-06 15:00:00 11.3 0 Calma 5 Nordeste 0 -- -- 71
2019-12-06 14:00:00 10 4 Norte 5 Norte 0 -- -- 75
2019-12-06 13:00:00 7.8 3 Norte 7 Nordeste 0 -- -- 84
2019-12-06 12:00:00 5.3 2 Norte 5 Nordeste 0 -- -- 96
2019-12-06 11:00:00 3.5 0 Calma 3 Norte 0 -- -- 98
2019-12-06 10:00:00 2.5 2 Este 9 Sur 0 -- -- 97
2019-12-06 09:00:00 0.2 5 Sudoeste 6 Sudoeste 0 -- -- 97
2019-12-06 08:00:00 0.4 0 Calma 4 Sur 0 -- -- 97
2019-12-06 07:00:00 0.9 2 Sur 5 Sur 0 -- -- 97
2019-12-06 06:00:00 1 2 Sur 6 Sudoeste 0 -- -- 97
2019-12-06 05:00:00 1.4 0 Calma 5 Sur 0 -- -- 95
2019-12-06 04:00:00 2.2 6 Sur 10 Sur 0 -- -- 96
2019-12-06 03:00:00 2.2 0 Calma 6 Sudeste 0 -- -- 94
2019-12-06 02:00:00 2.2 4 Sudeste 6 Sudeste 0 -- -- 92
2019-12-06 01:00:00 3 2 Sudeste 5 Sudoeste 0 -- -- 90
2019-12-06 00:00:00 3.6 0 Calma 4 Este 0 -- -- 88
2019-12-05 23:00:00 4.3 0 Calma 5 Sudeste 0 -- -- 86
2019-12-05 22:00:00 5.5 3 Sudeste 4 Sudeste 0 -- -- 82
2019-12-05 21:00:00 6.2 0 Calma 6 Sudeste 0 -- -- 80
2019-12-05 20:00:00 7.5 3 Sudeste 8 Sudeste 0 -- -- 75
2019-12-05 19:00:00 8.8 0 Calma 7 Sudoeste 0 -- -- 69
2019-12-05 18:00:00 8.6 5 Sudoeste 13 Sur 0 -- -- 74
2019-12-05 17:00:00 10.5 8 Sur 10 Sur 0 -- -- 76
2019-12-05 16:00:00 12 2 Norte 6 Norte 0 -- -- 68
2019-12-05 15:00:00 12.1 3 Este 8 Norte 0 -- -- 68
2019-12-05 14:00:00 11.3 4 Norte 10 Nordeste 0 -- -- 70
2019-12-05 13:00:00 9.9 5 Este 10 Este 0 -- -- 74
2019-12-05 12:00:00 8.8 2 Nordeste 12 Este 0 -- -- 76
2019-12-05 11:00:00 6.9 2 Este 6 Este 0 -- -- 82
2019-12-05 10:00:00 4.9 2 Nordeste 5 Sudeste 0 -- -- 88
2019-12-05 09:00:00 4.8 2 Norte 18 Sudeste 0 -- -- 86
2019-12-05 08:00:00 5.5 9 Sudeste 17 Este 0 -- -- 84
2019-12-05 07:00:00 6.3 6 Este 17 Este 0 -- -- 82
2019-12-05 06:00:00 6.5 6 Este 17 Este 0 -- -- 82
2019-12-05 05:00:00 6.5 7 Este 16 Sudeste 0 -- -- 81
2019-12-05 04:00:00 6.4 9 Sudeste 14 Sudeste 0 -- -- 81
2019-12-05 03:00:00 6.4 8 Este 18 Este 0 -- -- 82
2019-12-05 02:00:00 6 9 Sudeste 17 Este 0 -- -- 84
2019-12-05 01:00:00 6 5 Sudeste 13 Sudeste 0 -- -- 83
2019-12-05 00:00:00 6.2 7 Sudeste 17 Este 0 -- -- 82
2019-12-04 23:00:00 6.8 6 Este 13 Nordeste 0 -- -- 81
2019-12-04 22:00:00 7.6 8 Nordeste 15 Noroeste 0 -- -- 78
2019-12-04 21:00:00 8.2 9 Norte 24 Noroeste 0 -- -- 76
2019-12-04 20:00:00 8.3 11 Norte 25 Norte 0 -- -- 75
2019-12-04 19:00:00 9.2 11 Noroeste 22 Noroeste 0 -- -- 67
2019-12-04 18:00:00 10.6 6 Nordeste 17 Nordeste 0 -- -- 63
2019-12-04 17:00:00 11.3 7 Norte 18 Nordeste 0 -- -- 59
2019-12-04 16:00:00 11 9 Este 19 Este 0 -- -- 65
2019-12-04 15:00:00 10 7 Este 15 Este 0 -- -- 69
2019-12-04 14:00:00 5.8 3 Sudeste 8 Noroeste 0 -- -- 86
2019-12-04 13:00:00 4.5 3 Noroeste 8 Noroeste 0 -- -- 89
2019-12-04 12:00:00 4.1 3 Nordeste 8 Nordeste 0 -- -- 87
2019-12-04 11:00:00 2.5 5 Nordeste 8 Nordeste 0 -- -- 94
2019-12-04 10:00:00 1.1 3 Este 6 Nordeste 0 -- -- 98
2019-12-04 09:00:00 0.3 3 Este 7 Este 0 -- -- 97
2019-12-04 08:00:00 -0.2 6 Sudeste 8 Sudeste 0 -- -- 97
2019-12-04 07:00:00 -0.5 4 Este 6 Este 0 -- -- 95
2019-12-04 06:00:00 0.4 2 Este 12 Sudeste 0 -- -- 95
2019-12-04 05:00:00 0.5 3 Sudeste 10 Sudeste 0 -- -- 95
2019-12-04 04:00:00 0.8 4 Sudeste 8 Sudeste 0 -- -- 95
2019-12-04 03:00:00 0.8 0 Calma 4 Sur 0 -- -- 95
2019-12-04 02:00:00 0.9 2 Sudeste 5 Este 0 -- -- 96
2019-12-04 01:00:00 0.6 3 Sudeste 6 Sur 0 -- -- 95
2019-12-04 00:00:00 1 5 Sur 6 Sur 0 -- -- 94
2019-12-03 23:00:00 1.4 0 Calma 8 Sur 0 -- -- 94
2019-12-03 22:00:00 1.8 3 Sudoeste 6 Sudoeste 0 -- -- 92
2019-12-03 21:00:00 2.7 3 Sudeste 9 Sur 0 -- -- 90
2019-12-03 20:00:00 3.1 3 Este 8 Oeste 0 -- -- 88
2019-12-03 19:00:00 3.5 5 Sudoeste 19 Sur 0 -- -- 86
2019-12-03 18:00:00 4.9 15 Sur 19 Sur 0 -- -- 84
2019-12-03 17:00:00 6.3 12 Sur 15 Sudoeste 0 -- -- 78
2019-12-03 16:00:00 7.9 8 Sur 13 Sur 0 -- -- 72
2019-12-03 15:00:00 8.6 4 Noroeste 8 Oeste 0 -- -- 63
2019-12-03 14:00:00 7.8 4 Este 9 Este 0 -- -- 67
2019-12-03 13:00:00 6.7 4 Este 14 Este 0 -- -- 73
2019-12-03 12:00:00 5.4 4 Este 8 Sudeste 0 -- -- 78
2019-12-03 11:00:00 2.8 4 Noroeste 6 Noroeste 0 -- -- 86
2019-12-03 10:00:00 1.2 0 Calma 4 Sur 0 -- -- 92
2019-12-03 09:00:00 -0.4 0 Calma 4 Oeste 0 -- -- 93
2019-12-03 08:00:00 0.6 2 Noroeste 14 Este 0 -- -- 89
2019-12-03 07:00:00 1.2 5 Sudeste 12 Este 0 -- -- 89
2019-12-03 06:00:00 1.6 7 Sudeste 10 Sudeste 0 -- -- 87
2019-12-03 05:00:00 2.5 0 Calma 9 Norte 0 -- -- 84
2019-12-03 04:00:00 2.7 2 Nordeste 11 Norte 0 -- -- 83
2019-12-03 03:00:00 3.3 3 Noroeste 14 Norte 0 -- -- 81
2019-12-03 02:00:00 3.8 9 Norte 26 Noroeste 0 -- -- 81
2019-12-03 01:00:00 3.8 7 Noroeste 26 Norte 0 -- -- 81
2019-12-03 00:00:00 4 7 Noroeste 24 Oeste 0 -- -- 81
2019-12-02 23:00:00 4.6 15 Noroeste 30 Noroeste 0 -- -- 80
2019-12-02 22:00:00 4.7 11 Norte 30 Noroeste 0 -- -- 81
2019-12-02 21:00:00 5.1 10 Noroeste 27 Noroeste 0 -- -- 80
2019-12-02 20:00:00 5.6 10 Noroeste 24 Norte 0 -- -- 79
2019-12-02 19:00:00 6.5 8 Norte 26 Noroeste 0 -- -- 76
2019-12-02 18:00:00 7.5 10 Norte 31 Noroeste 0 -- -- 71
2019-12-02 17:00:00 8.6 15 Norte 35 Norte 0 -- -- 69
2019-12-02 16:00:00 9.5 17 Norte 33 Norte 0 -- -- 68
2019-12-02 15:00:00 10.8 14 Norte 36 Norte 0 -- -- 65
2019-12-02 14:00:00 11.4 12 Norte 30 Noroeste 0 -- -- 64
2019-12-02 13:00:00 11.3 13 Norte 24 Noroeste 0 -- -- 64
2019-12-02 12:00:00 10 4 Nordeste 12 Sudeste 0 -- -- 72
2019-12-02 11:00:00 7.2 6 Este 12 Este 0 -- -- 86
2019-12-02 10:00:00 2.7 2 Oeste 5 Oeste 0 -- -- 98
2019-12-02 09:00:00 0.6 2 Sudeste 5 Nordeste 0 -- -- 97
2019-12-02 08:00:00 0.7 2 Sudoeste 6 Sudoeste 0 -- -- 97
2019-12-02 07:00:00 0.8 4 Sudoeste 6 Sudoeste 0 -- -- 96
2019-12-02 06:00:00 1.3 0 Calma 5 Norte 0 -- -- 96
2019-12-02 05:00:00 1.8 4 Noroeste 5 Oeste 0 -- -- 96
2019-12-02 04:00:00 2.3 4 Oeste 5 Oeste 0 -- -- 95
2019-12-02 03:00:00 2.7 3 Noroeste 6 Sudoeste 0 -- -- 94
2019-12-02 02:00:00 3.6 4 Oeste 8 Este 0 -- -- 91
2019-12-02 01:00:00 5.5 8 Sudeste 13 Este 0 -- -- 89
2019-12-02 00:00:00 5.7 5 Sudeste 13 Sudeste 0 -- -- 89
2019-12-01 23:00:00 6 3 Sudeste 12 Sur 0 -- -- 86
2019-12-01 22:00:00 6.3 3 Sur 10 Norte 0 -- -- 87
2019-12-01 21:00:00 6.6 2 Este 8 Noroeste 0 -- -- 87
2019-12-01 20:00:00 7 4 Oeste 9 Sudoeste 0 -- -- 86
2019-12-01 19:00:00 7.3 4 Sudoeste 6 Sudoeste 0 -- -- 90
2019-12-01 18:00:00 7.3 4 Sudoeste 9 Sur 0 -- -- 91
2019-12-01 17:00:00 8.3 4 Sudoeste 6 Sudoeste 0.2 -- -- 88
2019-12-01 16:00:00 9.3 0 Calma 4 Norte 0 -- -- 83
2019-12-01 15:00:00 9.4 0 Calma 6 Nordeste 0 -- -- 82
2019-12-01 14:00:00 8.1 2 Sudeste 6 Nordeste 0 -- -- 91
2019-12-01 13:00:00 7.7 2 Sudoeste 8 Oeste 0 -- -- 97
2019-12-01 12:00:00 6.6 3 Oeste 6 Noroeste 0 -- -- 99
2019-12-01 11:00:00 5.5 0 Calma 8 Este 0 -- -- 98
2019-12-01 10:00:00 5.2 2 Sudeste 8 Nordeste 0 -- -- 98
2019-12-01 09:00:00 5.2 4 Este 7 Este 0 -- -- 98
2019-12-01 08:00:00 5.2 2 Este 6 Este 0 -- -- 98
2019-12-01 07:00:00 5.2 0 Calma 8 Sudeste 0 -- -- 98
2019-12-01 06:00:00 5.4 4 Este 9 Este 0 -- -- 97
2019-12-01 05:00:00 5.1 3 Sudoeste 9 Oeste 0 -- -- 97
2019-12-01 04:00:00 4.6 5 Oeste 8 Oeste 0 -- -- 96
2019-12-01 03:00:00 5 3 Nordeste 9 Sur 0 -- -- 96
2019-12-01 02:00:00 5.7 3 Este 13 Sur 0 -- -- 95
2019-12-01 01:00:00 6.5 5 Sudoeste 10 Sudoeste 0 -- -- 95
2019-12-01 00:00:00 7.1 5 Sudoeste 13 Sudoeste 0 -- -- 95
2019-11-30 23:00:00 7.5 3 Sudoeste 10 Este 0 -- -- 94
2019-11-30 22:00:00 7.9 4 Sudeste 9 Sur 0 -- -- 92
2019-11-30 21:00:00 8.2 4 Sudeste 21 Sudeste 0.2 -- -- 92
2019-11-30 20:00:00 8.6 5 Este 11 Sudoeste 3.4 -- -- 93
2019-11-30 19:00:00 8.8 5 Nordeste 36 Este 6 -- -- 94
2019-11-30 18:00:00 9.7 14 Este 33 Norte 3.8 -- -- 91
2019-11-30 17:00:00 14.1 19 Sur 35 Sur 0.2 -- -- 74
2019-11-30 16:00:00 14.9 6 Sudeste 22 Sur 0 -- -- 70
2019-11-30 15:00:00 13.8 4 Sudeste 15 Sudeste 0 -- -- 73
2019-11-30 14:00:00 12.4 4 Este 6 Nordeste 0 -- -- 74
2019-11-30 13:00:00 11.1 2 Norte 8 Noroeste 0 -- -- 73
2019-11-30 12:00:00 9.4 3 Este 7 Noroeste 0 -- -- 77
2019-11-30 11:00:00 8.7 3 Norte 6 Noroeste 0 -- -- 78
2019-11-30 10:00:00 7.1 2 Sudoeste 7 Sudoeste 0 -- -- 83
2019-11-30 09:00:00 5.2 0 Calma 5 Sudoeste 0 -- -- 92
2019-11-30 08:00:00 5.1 3 Sudoeste 7 Sur 0 -- -- 89
2019-11-30 07:00:00 5.3 5 Sudoeste 8 Sudoeste 0 -- -- 89
2019-11-30 06:00:00 4.5 5 Oeste 8 Oeste 0 -- -- 93
2019-11-30 05:00:00 4.4 4 Oeste 7 Sudoeste 0 -- -- 93
2019-11-30 04:00:00 4.1 4 Sudoeste 8 Sudoeste 0 -- -- 94
2019-11-30 03:00:00 3.7 4 Sudoeste 9 Oeste 0 -- -- 94
2019-11-30 02:00:00 4.1 2 Sudoeste 6 Sudoeste 0 -- -- 92
2019-11-30 01:00:00 5 4 Oeste 8 Oeste 0 -- -- 91
2019-11-30 00:00:00 5.3 5 Sur 9 Sur 0 -- -- 91
2019-11-29 23:00:00 5.6 2 Sudeste 4 Sudeste 0 -- -- 90
2019-11-29 22:00:00 6.4 4 Sudeste 7 Sudoeste 0 -- -- 89
2019-11-29 21:00:00 7.2 0 Calma 4 Sur 0 -- -- 85
2019-11-29 20:00:00 8.4 0 Calma 8 Sudeste 0 -- -- 81
2019-11-29 19:00:00 9.1 4 Sudeste 9 Sudeste 0 -- -- 77
2019-11-29 18:00:00 11.2 3 Sudeste 7 Sur 0 -- -- 67
2019-11-29 17:00:00 13.3 3 Nordeste 14 Norte 0 -- -- 61
2019-11-29 16:00:00 14.3 9 Norte 19 Norte 0 -- -- 56
2019-11-29 15:00:00 15 12 Norte 22 Noroeste 0 -- -- 55
2019-11-29 14:00:00 15.4 10 Norte 24 Noroeste 0 -- -- 58
2019-11-29 13:00:00 14.8 12 Norte 24 Norte 0 -- -- 59
2019-11-29 12:00:00 14.3 13 Norte 23 Noroeste 0 -- -- 63
2019-11-29 11:00:00 14.1 9 Noroeste 17 Noroeste 0 -- -- 70
2019-11-29 10:00:00 12.8 3 Norte 9 Norte 0 -- -- 76
2019-11-29 09:00:00 10.8 6 Norte 17 Norte 0 -- -- 85
2019-11-29 08:00:00 9.8 4 Sudeste 9 Sur 0 -- -- 97
2019-11-29 07:00:00 9.6 3 Oeste 6 Sur 0 -- -- 97
2019-11-29 06:00:00 10 0 Calma 6 Sur 0 -- -- 97
2019-11-29 05:00:00 10 4 Noroeste 7 Sudoeste 0.2 -- -- 96
2019-11-29 04:00:00 10.2 3 Sur 9 Sudoeste 0 -- -- 96
2019-11-29 03:00:00 10.3 4 Sudoeste 7 Sudoeste 0 -- -- 96
2019-11-29 02:00:00 10.1 4 Sudoeste 7 Sudoeste 0 -- -- 96
2019-11-29 01:00:00 10 0 Calma 8 Sudoeste 0 -- -- 96
2019-11-29 00:00:00 9.9 6 Sudoeste 8 Sudoeste 0 -- -- 96
2019-11-28 23:00:00 10.3 2 Sur 6 Sudoeste 0 -- -- 95
2019-11-28 22:00:00 10.4 2 Sudoeste 6 Sur 0.2 -- -- 95
2019-11-28 21:00:00 10.4 3 Oeste 8 Noroeste 0 -- -- 95
2019-11-28 20:00:00 10.7 0 Calma 5 Sudoeste 0 -- -- 94
2019-11-28 19:00:00 10.9 2 Oeste 8 Sudoeste 0.4 -- -- 93
2019-11-28 18:00:00 11.2 3 Sudoeste 12 Sur 0 -- -- 91
2019-11-28 17:00:00 11.9 0 Calma 8 Oeste 0 -- -- 88
2019-11-28 16:00:00 12.3 3 Sudoeste 7 Norte 0 -- -- 86
2019-11-28 15:00:00 12.1 0 Calma 6 Sudoeste 0 -- -- 85
2019-11-28 14:00:00 11.6 2 Noroeste 6 Norte 0 -- -- 86
2019-11-28 13:00:00 10.3 4 Noroeste 7 Noroeste 0 -- -- 96
2019-11-28 12:00:00 9.3 2 Oeste 6 Sudoeste 0 -- -- 98
2019-11-28 11:00:00 8.6 2 Sur 4 Sudoeste 0 -- -- 98
2019-11-28 10:00:00 7.7 2 Sur 5 Sudeste 0 -- -- 98
2019-11-28 09:00:00 6.5 4 Oeste 8 Oeste 0.2 -- -- 98
2019-11-28 08:00:00 6.5 3 Nordeste 9 Sudoeste 0 -- -- 97
2019-11-28 07:00:00 7.2 3 Noroeste 9 Oeste 0 -- -- 97
2019-11-28 06:00:00 7.3 4 Nordeste 9 Sudeste 0 -- -- 97
2019-11-28 05:00:00 7.3 4 Oeste 10 Sudoeste 0 -- -- 97
2019-11-28 04:00:00 7.3 3 Sur 9 Sudoeste 0 -- -- 97
2019-11-28 03:00:00 7.6 3 Sudeste 9 Sur 0 -- -- 96
2019-11-28 02:00:00 7.6 7 Sur 11 Sur 0 -- -- 96
2019-11-28 01:00:00 8.2 6 Oeste 12 Noroeste 0 -- -- 96
2019-11-28 00:00:00 8.6 6 Sudoeste 9 Sudoeste 0 -- -- 96
2019-11-27 23:00:00 9 4 Oeste 9 Noroeste 0 -- -- 96
2019-11-27 22:00:00 9 2 Sudoeste 13 Noroeste 0.8 -- -- 96
2019-11-27 21:00:00 9.2 5 Oeste 11 Sudeste 1.6 -- -- 95
2019-11-27 20:00:00 9.2 8 Oeste 13 Sur 0.8 -- -- 93
2019-11-27 19:00:00 9.6 7 Sur 12 Sur 0.8 -- -- 90
2019-11-27 18:00:00 10.4 6 Sur 17 Oeste 0.6 -- -- 86
2019-11-27 17:00:00 12.3 2 Sudeste 8 Sur 0 -- -- 69
2019-11-27 16:00:00 13.1 6 Sudoeste 17 Sur 0 -- -- 67
2019-11-27 15:00:00 13.8 10 Sudoeste 20 Oeste 0 -- -- 66
2019-11-27 14:00:00 14.2 10 Oeste 23 Oeste 0 -- -- 60
2019-11-27 06:00:00 -- -- -- -- -- -- -- -- --
2019-11-27 05:00:00 10.8 10 Oeste 29 Oeste 0 -- -- 70
2019-11-27 04:00:00 11.2 15 Oeste 24 Oeste 0 -- -- 74
2019-11-27 03:00:00 11 4 Noroeste 11 Oeste 0 -- -- 92
2019-11-27 02:00:00 11.8 10 Sudoeste 20 Sudoeste 0 -- -- 87
2019-11-27 01:00:00 12.2 12 Sudoeste 31 Oeste 1 -- -- 86
2019-11-27 00:00:00 13.3 15 Oeste 45 Sur 0.8 -- -- 86
2019-11-26 23:00:00 14.1 28 Sur 52 Sur 0 -- -- 78
2019-11-26 22:00:00 14.9 33 Sur 62 Sur 0 -- -- 73
2019-11-26 21:00:00 14.8 31 Sur 62 Sur 0 -- -- 72
2019-11-26 20:00:00 14.9 40 Sur 59 Sur 0 -- -- 72
2019-11-26 19:00:00 15 37 Sur 55 Sur 0 -- -- 72
2019-11-26 18:00:00 14.8 13 Sudeste 28 Este 0 -- -- 73
2019-11-26 17:00:00 14 5 Sudeste 13 Sudeste 0 -- -- 78
2019-11-26 16:00:00 12.9 4 Nordeste 9 Nordeste 0 -- -- 82
2019-11-26 15:00:00 12 3 Noroeste 8 Noroeste 0 -- -- 82
2019-11-26 14:00:00 10.9 2 Noroeste 10 Noroeste 0 -- -- 84
2019-11-26 13:00:00 9.5 3 Nordeste 7 Noroeste 0 -- -- 88
2019-11-26 12:00:00 9.1 2 Noroeste 10 Noroeste 0 -- -- 86
2019-11-26 11:00:00 7.7 3 Noroeste 9 Oeste 0 -- -- 96
2019-11-26 10:00:00 5.6 0 Calma 6 Noroeste 0 -- -- 98
2019-11-26 09:00:00 4.7 2 Oeste 8 Sudoeste 0 -- -- 98
2019-11-26 08:00:00 3.8 3 Norte 6 Norte 0 -- -- 97
2019-11-26 07:00:00 4.3 4 Oeste 7 Noroeste 0 -- -- 97
2019-11-26 06:00:00 4.8 4 Sur 8 Sudoeste 0 -- -- 97
2019-11-26 05:00:00 4.9 3 Oeste 6 Oeste 0 -- -- 96
2019-11-26 04:00:00 5.5 2 Sudoeste 5 Sudoeste 0 -- -- 97
2019-11-26 03:00:00 5.4 2 Noroeste 4 Oeste 0 -- -- 95
2019-11-26 02:00:00 6.3 0 Calma 6 Sudeste 0 -- -- 96
2019-11-26 01:00:00 6.8 3 Sur 8 Oeste 0 -- -- 96
2019-11-26 00:00:00 7 3 Oeste 5 Oeste 0 -- -- 95
2019-11-25 23:00:00 7.8 2 Este 6 Sur 0 -- -- 94
2019-11-25 22:00:00 8.5 3 Oeste 5 Sudoeste 0 -- -- 93
2019-11-25 21:00:00 8.9 3 Sur 7 Sur 0 -- -- 89
2019-11-25 20:00:00 9.8 0 Calma 5 Sudeste 0 -- -- 90
2019-11-25 19:00:00 10.3 4 Sur 12 Sur 0 -- -- 86
2019-11-25 18:00:00 11.5 4 Sur 12 Sur 0 -- -- 83
2019-11-25 17:00:00 13.3 5 Sudoeste 8 Este 0 -- -- 79
2019-11-25 16:00:00 14.4 5 Este 9 Este 0 -- -- 71
2019-11-25 15:00:00 14.8 0 Calma 5 Nordeste 0 -- -- 69
2019-11-25 14:00:00 13.6 4 Nordeste 5 Nordeste 0 -- -- 76
2019-11-25 13:00:00 11.9 3 Norte 6 Nordeste 0 -- -- 78
2019-11-25 12:00:00 10.2 4 Nordeste 9 Norte 0 -- -- 83
2019-11-25 11:00:00 9.1 2 Norte 4 Nordeste 0 -- -- 87
2019-11-25 10:00:00 7.4 0 Calma 4 Sudoeste 0 -- -- 96
2019-11-25 09:00:00 5.9 4 Sudoeste 5 Noroeste 0 -- -- 97
2019-11-25 08:00:00 5.7 4 Sur 7 Sudoeste 0 -- -- 97
2019-11-25 07:00:00 5.3 4 Sudoeste 6 Oeste 0 -- -- 96
2019-11-25 06:00:00 6.3 0 Calma 4 Sudoeste 0 -- -- 97
2019-11-25 05:00:00 6.3 2 Sudoeste 4 Oeste 0 -- -- 97
2019-11-25 04:00:00 6.2 2 Sudeste 6 Sudoeste 0 -- -- 97
2019-11-25 03:00:00 6 4 Sudoeste 6 Sudoeste 0 -- -- 96
2019-11-25 02:00:00 6.2 3 Noroeste 5 Oeste 0.2 -- -- 96
2019-11-25 01:00:00 6.1 -- -- -- -- 0 -- -- 96
2019-11-25 00:00:00 6.5 3 Norte 11 Sur 1 -- -- 95
2019-11-24 23:00:00 6.5 8 Sur 10 Oeste 0.8 -- -- 94
2019-11-24 22:00:00 6.3 4 Oeste 8 Sur 0 -- -- 93
2019-11-24 21:00:00 6.3 0 Calma 6 Oeste 0 -- -- 92
2019-11-24 20:00:00 6.6 0 Calma 9 Sudoeste 0 -- -- 89
2019-11-24 19:00:00 7.3 2 Sudeste 12 Sur 0 -- -- 87
2019-11-24 18:00:00 8.4 5 Sudoeste 9 Sur 0 -- -- 84
2019-11-24 17:00:00 9.7 3 Sudoeste 18 Oeste 0 -- -- 79
2019-11-24 16:00:00 10.3 12 Oeste 20 Oeste 0 -- -- 74
2019-11-24 15:00:00 10.9 9 Oeste 23 Noroeste 0 -- -- 73
2019-11-24 14:00:00 10.1 14 Noroeste 27 Oeste 0 -- -- 78
2019-11-24 13:00:00 9.7 10 Oeste 15 Oeste 0 -- -- 83
2019-11-24 12:00:00 7.7 3 Oeste 10 Oeste 0 -- -- 91
2019-11-24 11:00:00 6.9 4 Sur 9 Sudeste 0 -- -- 90
2019-11-24 10:00:00 6.5 6 Sudeste 12 Sudeste 0 -- -- 90
2019-11-24 09:00:00 5.9 5 Sudeste 10 Sudeste 0 -- -- 93
2019-11-24 08:00:00 5.4 2 Sur 10 Sudoeste 0 -- -- 93
2019-11-24 07:00:00 5.6 8 Sur 11 Este 0 -- -- 92
2019-11-24 06:00:00 6.2 3 Norte 14 Oeste 0 -- -- 90
2019-11-24 05:00:00 6.5 10 Oeste 17 Oeste 0 -- -- 87
2019-11-24 04:00:00 6.7 11 Noroeste 21 Oeste 0 -- -- 89
2019-11-24 03:00:00 6.8 9 Oeste 21 Oeste 0.2 -- -- 89
2019-11-24 02:00:00 6.9 8 Oeste 16 Oeste 0.2 -- -- 89
2019-11-24 01:00:00 6.9 8 Oeste 21 Oeste 0.8 -- -- 89
2019-11-24 00:00:00 7.5 12 Oeste 23 Oeste 0 -- -- 85
2019-11-23 23:00:00 7.1 9 Oeste 23 Oeste 0 -- -- 86
2019-11-23 22:00:00 7.4 15 Oeste 24 Oeste 0 -- -- 86
2019-11-23 21:00:00 7 13 Oeste 24 Oeste 0 -- -- 85
2019-11-23 20:00:00 6.7 3 Oeste 15 Oeste 0.2 -- -- 86
2019-11-23 19:00:00 7.1 7 Oeste 26 Noroeste 0 -- -- 86
2019-11-23 18:00:00 7.4 11 Oeste 21 Oeste 0.2 -- -- 83
2019-11-23 17:00:00 7.8 10 Oeste 23 Oeste 0 -- -- 85
2019-11-23 16:00:00 7.7 14 Noroeste 31 Noroeste 0.8 -- -- 85
2019-11-23 15:00:00 7.8 12 Oeste 37 Noroeste 0.2 -- -- 87
2019-11-23 14:00:00 8.1 17 Oeste 33 Oeste 0.2 -- -- 86
2019-11-23 13:00:00 7.8 12 Oeste 31 Oeste 0.2 -- -- 87
2019-11-23 12:00:00 7.5 14 Oeste 31 Oeste 0.6 -- -- 88
2019-11-23 11:00:00 7.1 16 Oeste 30 Oeste 1.2 -- -- 89
2019-11-23 10:00:00 6.8 18 Oeste 32 Oeste 1 -- -- 87
2019-11-23 09:00:00 7.2 14 Oeste 35 Oeste 0 -- -- 86
2019-11-23 08:00:00 7.4 20 Oeste 51 Oeste 0.2 -- -- 85
2019-11-23 07:00:00 7.2 14 Oeste 41 Oeste 3 -- -- 88
2019-11-23 06:00:00 7.8 6 Oeste 19 Oeste 0.4 -- -- 92
2019-11-23 05:00:00 7.1 5 Sudoeste 10 Norte 0 -- -- 92
2019-11-23 04:00:00 7.2 3 Nordeste 12 Sudoeste 0 -- -- 91
2019-11-23 03:00:00 7.6 8 Sudoeste 10 Sudoeste 0 -- -- 89
2019-11-23 02:00:00 8.7 3 Oeste 24 Sudeste 0 -- -- 86
2019-11-23 01:00:00 9.5 3 Nordeste 33 Sur 0 -- -- 84
2019-11-23 00:00:00 9.3 24 Sur 39 Sur 0 -- -- 86
2019-11-22 23:00:00 9.9 25 Sur 44 Sur 0 -- -- 83
2019-11-22 22:00:00 10.3 23 Sur 60 Sur 0 -- -- 84
2019-11-22 21:00:00 10.3 31 Sur 45 Sur 3.2 -- -- 87
2019-11-22 20:00:00 9.9 7 Noroeste 30 Noroeste 0.6 -- -- 91
2019-11-22 19:00:00 10.6 7 Este 22 Noroeste 0 -- -- 84
2019-11-22 18:00:00 10.5 14 Sur 50 Sudeste 0.4 -- -- 84
2019-11-22 17:00:00 10.3 19 Sudeste 41 Sudeste 1 -- -- 84
2019-11-22 16:00:00 10.4 18 Sudeste 51 Sudeste 0 -- -- 78
2019-11-22 15:00:00 10.3 20 Sudeste 57 Sudeste 0 -- -- 78
2019-11-22 14:00:00 9.9 25 Sudeste 53 Sudeste 0 -- -- 79
2019-11-22 13:00:00 9.3 10 Sudeste 42 Sudeste 0.6 -- -- 81
2019-11-22 12:00:00 8.9 20 Sudeste 43 Sudeste 2.4 -- -- 84
2019-11-22 11:00:00 8.6 19 Sudeste 45 Sudeste 1.8 -- -- 84
2019-11-22 10:00:00 9 23 Sudeste 44 Sudeste 0.4 -- -- 80
2019-11-22 09:00:00 9.3 18 Sudeste 33 Sudeste 0.2 -- -- 74
2019-11-22 08:00:00 8.1 8 Sudeste 21 Sudeste 0 -- -- 80
2019-11-22 07:00:00 5.5 4 Noroeste 11 Noroeste 0 -- -- 90
2019-11-22 06:00:00 5.1 4 Oeste 12 Oeste 0 -- -- 93
2019-11-22 05:00:00 4.3 4 Oeste 8 Sudoeste 0 -- -- 93
2019-11-22 04:00:00 4.4 5 Sudoeste 10 Sudoeste 0 -- -- 93
2019-11-22 03:00:00 4.4 5 Sudoeste 9 Sudoeste 0 -- -- 93
2019-11-22 02:00:00 4.4 4 Sudoeste 9 Sudoeste 0 -- -- 94
2019-11-22 01:00:00 4.1 2 Norte 9 Sur 0 -- -- 93
2019-11-22 00:00:00 4 0 Calma 6 Oeste 0 -- -- 92
2019-11-21 23:00:00 5 2 Norte 5 Sudoeste 0 -- -- 89
2019-11-21 22:00:00 5.5 4 Sur 11 Sur 0 -- -- 88
2019-11-21 21:00:00 5.8 5 Oeste 8 Oeste 0 -- -- 87
2019-11-21 20:00:00 6.5 4 Sudoeste 10 Sudoeste 0 -- -- 83
2019-11-21 19:00:00 8 4 Sudoeste 8 Sudoeste 0 -- -- 77
2019-11-21 18:00:00 8.4 3 Sur 13 Sur 0 -- -- 76
2019-11-21 17:00:00 10.2 3 Sur 24 Sur 0 -- -- 71
2019-11-21 16:00:00 10.8 15 Sur 27 Sur 0 -- -- 70
2019-11-21 15:00:00 11.5 14 Sur 26 Sur 0 -- -- 70
2019-11-21 14:00:00 11.3 14 Sur 24 Sur 0 -- -- 72
2019-11-21 13:00:00 10.2 3 Sur 8 Nordeste 0 -- -- 76
2019-11-21 12:00:00 8.3 3 Noroeste 6 Noroeste 0 -- -- 85
2019-11-21 11:00:00 7.6 3 Noroeste 7 Noroeste 0 -- -- 87
2019-11-21 10:00:00 6.5 3 Oeste 8 Sudoeste 0 -- -- 94
2019-11-21 09:00:00 5.1 4 Sudoeste 11 Sur 0 -- -- 94
2019-11-21 08:00:00 5.1 5 Oeste 9 Sur 0 -- -- 94
2019-11-21 07:00:00 5.5 3 Oeste 9 Oeste 0 -- -- 93
2019-11-21 06:00:00 5.5 5 Sudoeste 8 Sudoeste 0 -- -- 94
2019-11-21 05:00:00 5.4 3 Sudoeste 6 Sudoeste 0 -- -- 94
2019-11-21 04:00:00 5.6 4 Oeste 6 Sudoeste 0 -- -- 94
2019-11-21 03:00:00 5.5 5 Sudoeste 10 Sudoeste 0 -- -- 94
2019-11-21 02:00:00 5.6 3 Oeste 8 Oeste 0.2 -- -- 93
2019-11-21 01:00:00 5.8 3 Oeste 8 Oeste 0.6 -- -- 92
2019-11-21 00:00:00 5.9 5 Noroeste 10 Sudeste 0.6 -- -- 90
2019-11-20 23:00:00 6.2 5 Sudeste 11 Este 0.4 -- -- 87
2019-11-20 22:00:00 6.5 3 Este 6 Sudeste 0.2 -- -- 83
2019-11-20 21:00:00 6.9 5 Oeste 12 Oeste 0 -- -- 76
2019-11-20 20:00:00 7.5 2 Oeste 10 Noroeste 0 -- -- 74
2019-11-20 19:00:00 8 5 Oeste 8 Oeste 0 -- -- 65
2019-11-20 18:00:00 8.8 2 Norte 13 Sudeste 0 -- -- 64
2019-11-20 17:00:00 9.5 10 Sudeste 25 Sudeste 0 -- -- 59
2019-11-20 16:00:00 9.7 12 Sur 30 Sur 0 -- -- 62
2019-11-20 15:00:00 11 13 Sur 31 Sur 0 -- -- 61
2019-11-20 14:00:00 10.1 14 Sur 25 Sudeste 0 -- -- 63
2019-11-20 13:00:00 6.5 4 Norte 9 Norte 0 -- -- 77
2019-11-20 12:00:00 4.6 2 Norte 6 Este 0 -- -- 80
2019-11-20 11:00:00 3.2 3 Norte 6 Norte 0 -- -- 84
2019-11-20 10:00:00 1.7 2 Oeste 5 Sudoeste 0 -- -- 92
2019-11-20 09:00:00 0 2 Sudoeste 6 Sudoeste 0 -- -- 94
2019-11-20 08:00:00 -0.3 3 Sur 6 Sur 0 -- -- 94
2019-11-20 07:00:00 -0.6 4 Sudoeste 5 Sudoeste 0 -- -- 93
2019-11-20 06:00:00 -0.3 3 Sudoeste 5 Sudoeste 0 -- -- 93
2019-11-20 05:00:00 0.3 0 Calma 6 Sudoeste 0 -- -- 91
2019-11-20 04:00:00 0.4 4 Sudoeste 8 Sudoeste 0 -- -- 93
2019-11-20 03:00:00 0.4 5 Sudoeste 8 Sudoeste 0 -- -- 93
2019-11-20 02:00:00 0.8 5 Sudoeste 7 Sudoeste 0 -- -- 92
2019-11-20 01:00:00 1.1 4 Sudoeste 6 Sudoeste 0 -- -- 90
2019-11-20 00:00:00 1.8 2 Sudoeste 8 Sudoeste 0 -- -- 90
2019-11-19 23:00:00 2.5 2 Sur 6 Sudoeste 0 -- -- 87
2019-11-19 22:00:00 2.5 4 Sudoeste 10 Oeste 0 -- -- 87
2019-11-19 21:00:00 3.2 5 Oeste 9 Sudoeste 0 -- -- 84
2019-11-19 20:00:00 4.8 0 Calma 6 Sudoeste 0 -- -- 79
2019-11-19 19:00:00 5 3 Sudeste 13 Sudoeste 0 -- -- 75
2019-11-19 18:00:00 6.5 5 Sur 13 Sur 0 -- -- 70
2019-11-19 17:00:00 8.7 8 Sur 12 Sur 0 -- -- 66
2019-11-19 16:00:00 10.2 4 Este 6 Este 0 -- -- 54
2019-11-19 15:00:00 10.6 3 Este 10 Este 0 -- -- 52
2019-11-19 14:00:00 10.4 8 Este 15 Este 0 -- -- 54
2019-11-19 13:00:00 10.1 5 Este 13 Nordeste 0 -- -- 54
2019-11-19 12:00:00 9.6 3 Nordeste 9 Este 0 -- -- 53
2019-11-19 11:00:00 8.3 4 Este 9 Sudeste 0 -- -- 60
2019-11-19 10:00:00 6.8 4 Norte 10 Noroeste 0 -- -- 68
2019-11-19 09:00:00 3.6 6 Sudoeste 15 Oeste 0 -- -- 79
2019-11-19 08:00:00 2.9 13 Sur 25 Norte 0 -- -- 80
2019-11-19 07:00:00 4.4 12 Norte 24 Norte 0 -- -- 75
2019-11-19 06:00:00 4.8 8 Noroeste 17 Nordeste 0 -- -- 74
2019-11-19 05:00:00 3.8 5 Oeste 15 Oeste 0 -- -- 78
2019-11-19 04:00:00 3.6 5 Noroeste 9 Oeste 0 -- -- 76
2019-11-19 03:00:00 3.7 5 Noroeste 19 Noroeste 0 -- -- 76
2019-11-19 02:00:00 3.2 11 Oeste 21 Oeste 0 -- -- 77
2019-11-19 01:00:00 3.2 7 Noroeste 16 Oeste 0 -- -- 76
2019-11-19 00:00:00 2.8 4 Nordeste 10 Nordeste 0 -- -- 79
2019-11-18 23:00:00 3.2 4 Nordeste 15 Noroeste 0 -- -- 79
2019-11-18 22:00:00 3.8 2 Norte 10 Norte 0 -- -- 73
2019-11-18 21:00:00 4.7 4 Nordeste 19 Noroeste 0 -- -- 69
2019-11-18 20:00:00 5.1 10 Noroeste 24 Norte 0 -- -- 72
2019-11-18 19:00:00 5.6 10 Norte 24 Norte 0 -- -- 69
2019-11-18 18:00:00 6.1 9 Norte 21 Noroeste 0 -- -- 67
2019-11-18 17:00:00 6.5 12 Norte 29 Norte 0 -- -- 66
2019-11-18 16:00:00 6.8 14 Norte 32 Nordeste 0 -- -- 66
2019-11-18 15:00:00 7.2 16 Nordeste 32 Nordeste 0 -- -- 65
2019-11-18 14:00:00 7.1 19 Norte 42 Nordeste 0 -- -- 66
2019-11-18 13:00:00 7 16 Norte 36 Norte 0 -- -- 67
2019-11-18 12:00:00 7.2 21 Norte 37 Nordeste 0 -- -- 65
2019-11-18 11:00:00 7.5 14 Norte 26 Norte 0 -- -- 65
2019-11-18 10:00:00 6.3 8 Norte 26 Norte 0 -- -- 72
2019-11-18 09:00:00 4.8 12 Noroeste 30 Noroeste 0 -- -- 76
2019-11-18 08:00:00 5 14 Norte 28 Norte 0 -- -- 74
2019-11-18 07:00:00 4.9 5 Norte 19 Noroeste 0 -- -- 81
2019-11-18 06:00:00 5.5 12 Noroeste 24 Norte 0 -- -- 83
2019-11-18 05:00:00 5.6 7 Oeste 22 Noroeste 0 -- -- 85
2019-11-18 04:00:00 6 7 Noroeste 24 Noroeste 0 -- -- 86
2019-11-18 03:00:00 5.9 5 Norte 13 Noroeste 0 -- -- 91
2019-11-18 02:00:00 5.8 2 Sur 13 Oeste 0 -- -- 95
2019-11-18 01:00:00 5.8 7 Sudoeste 14 Sudoeste 0 -- -- 97
2019-11-18 00:00:00 6 5 Oeste 8 Oeste 0.2 -- -- 98
2019-11-17 23:00:00 5.8 3 Sudoeste 4 Sudoeste 0 -- -- 97
2019-11-17 22:00:00 5.7 4 Sudoeste 6 Sur 0 -- -- 97
2019-11-17 21:00:00 5.9 4 Noroeste 9 Sur 0 -- -- 97
2019-11-17 20:00:00 5.9 3 Sudoeste 8 Sur 0 -- -- 96
2019-11-17 19:00:00 6.1 3 Norte 7 Norte 0.4 -- -- 95
2019-11-17 18:00:00 7 2 Norte 5 Noroeste 0 -- -- 94
2019-11-17 17:00:00 7.4 3 Oeste 8 Nordeste 0 -- -- 92
2019-11-17 16:00:00 7.7 0 Calma 6 Nordeste 0.2 -- -- 91
2019-11-17 15:00:00 7.4 3 Este 5 Nordeste 0.2 -- -- 92
2019-11-17 14:00:00 7.5 3 Noroeste 5 Nordeste 0.2 -- -- 88
2019-11-17 13:00:00 7.1 2 Noroeste 6 Nordeste 0 -- -- 92
2019-11-17 12:00:00 6.1 3 Nordeste 6 Nordeste 0 -- -- 98
2019-11-17 11:00:00 4.6 3 Sudeste 7 Nordeste 0 -- -- 99
2019-11-17 10:00:00 3.7 3 Oeste 7 Sudeste 0 -- -- 99
2019-11-17 09:00:00 2.7 0 Calma 5 Nordeste 0 -- -- 98
2019-11-17 08:00:00 2.3 3 Sur 5 Sur 0 -- -- 98
2019-11-17 07:00:00 2.1 4 Sudoeste 6 Sudoeste 0 -- -- 98
2019-11-17 06:00:00 1.7 3 Noroeste 5 Noroeste 0 -- -- 98
2019-11-17 05:00:00 1.4 4 Sudoeste 8 Sudeste 0 -- -- 98
2019-11-17 04:00:00 1.4 2 Oeste 5 Noroeste 0 -- -- 98
2019-11-17 03:00:00 1.2 2 Sudoeste 6 Sur 0 -- -- 98
2019-11-17 02:00:00 1.6 0 Calma 5 Sudeste 0 -- -- 97
2019-11-17 01:00:00 1.4 3 Sur 7 Sudoeste 0 -- -- 97
2019-11-17 00:00:00 1.6 2 Este 6 Sudoeste 0 -- -- 96
2019-11-16 23:00:00 1.7 2 Oeste 6 Sur 0 -- -- 96
2019-11-16 22:00:00 2.1 3 Sudeste 6 Sur 0 -- -- 95
2019-11-16 21:00:00 2.8 4 Sur 9 Nordeste 0 -- -- 96
2019-11-16 20:00:00 2.9 5 Sudeste 12 Sudeste 0 -- -- 96
2019-11-16 19:00:00 3.1 5 Nordeste 7 Este 0.2 -- -- 95
2019-11-16 18:00:00 3.3 0 Calma 7 Norte 0 -- -- 95
2019-11-16 17:00:00 3.8 4 Nordeste 14 Nordeste 0 -- -- 95
2019-11-16 16:00:00 4.3 6 Nordeste 10 Este 0.2 -- -- 96
2019-11-16 15:00:00 4.5 7 Nordeste 11 Nordeste 0.6 -- -- 96
2019-11-16 14:00:00 3.7 4 Nordeste 6 Este 0.4 -- -- 96
2019-11-16 13:00:00 2.9 2 Nordeste 8 Noroeste 1 -- -- 95
2019-11-16 12:00:00 2.5 3 Noroeste 6 Noroeste 0 -- -- 94
2019-11-16 11:00:00 1.9 3 Noroeste 5 Noroeste 0 -- -- 94
2019-11-16 10:00:00 1.1 0 Calma 6 Noroeste 0 -- -- 95
2019-11-16 09:00:00 0.9 3 Norte 7 Noroeste 0 -- -- 93
2019-11-16 08:00:00 0.6 0 Calma 8 Sudoeste 0 -- -- 92
2019-11-16 07:00:00 0.8 0 Calma 9 Sudoeste 0 -- -- 93
2019-11-16 06:00:00 0.9 2 Sudeste 8 Sur 0 -- -- 92
2019-11-16 05:00:00 1.5 3 Sudeste 8 Sudoeste 0 -- -- 91
2019-11-16 04:00:00 1.8 3 Oeste 7 Sudoeste 0 -- -- 91
2019-11-16 03:00:00 2 0 Calma 8 Noroeste 0 -- -- 90
2019-11-16 02:00:00 2.2 5 Oeste 10 Noroeste 0 -- -- 87
2019-11-16 01:00:00 2.6 5 Noroeste 15 Oeste 0 -- -- 86
2019-11-16 00:00:00 2.7 9 Oeste 17 Oeste 0 -- -- 87
2019-11-15 23:00:00 3.3 4 Este 13 Norte 0 -- -- 86
2019-11-15 22:00:00 3.6 7 Nordeste 15 Nordeste 0 -- -- 87
2019-11-15 21:00:00 3.9 2 Este 8 Sur 0 -- -- 85
2019-11-15 20:00:00 4 3 Sur 9 Norte 0 -- -- 86
2019-11-15 19:00:00 4.6 2 Este 12 Norte 0 -- -- 84
2019-11-15 18:00:00 5.4 10 Noroeste 18 Noroeste 0 -- -- 84
2019-11-15 17:00:00 6.5 9 Noroeste 24 Noroeste 0 -- -- 75
2019-11-15 16:00:00 6.5 10 Noroeste 24 Noroeste 0.2 -- -- 81
2019-11-15 15:00:00 6.7 9 Oeste 27 Oeste 0.2 -- -- 83
2019-11-15 14:00:00 6.8 17 Oeste 31 Oeste 0 -- -- 81
2019-11-15 13:00:00 5.7 18 Oeste 45 Oeste 0.6 -- -- 88
2019-11-15 12:00:00 5.2 31 Oeste 53 Oeste 0.4 -- -- 86
2019-11-15 11:00:00 5.6 25 Oeste 44 Oeste 0 -- -- 84
2019-11-15 10:00:00 4.6 21 Oeste 41 Oeste 0 -- -- 88
2019-11-15 09:00:00 3.9 18 Oeste 36 Oeste 0.8 -- -- 90
2019-11-15 08:00:00 3.6 8 Oeste 24 Sudoeste 0.2 -- -- 90
2019-11-15 07:00:00 3.2 14 Oeste 27 Sudoeste 0 -- -- 94
2019-11-15 06:00:00 1.5 2 Oeste 5 Oeste 0 -- -- 94
2019-11-15 05:00:00 1.8 3 Este 6 Oeste 0 -- -- 93
2019-11-15 04:00:00 2.2 2 Este 11 Sur 0 -- -- 93
2019-11-15 03:00:00 2.4 4 Oeste 13 Sur 0 -- -- 92
2019-11-15 02:00:00 3 5 Sudeste 12 Sudeste 0 -- -- 89
2019-11-15 01:00:00 3.6 6 Este 15 Este 0 -- -- 87
2019-11-15 00:00:00 3.4 6 Sur 9 Sudeste 0 -- -- 89
2019-11-14 23:00:00 4.2 2 Nordeste 10 Sur 0 -- -- 88
2019-11-14 22:00:00 4.4 8 Sudoeste 10 Sur 0 -- -- 86
2019-11-14 21:00:00 4.2 0 Calma 8 Sudoeste 0 -- -- 86
2019-11-14 20:00:00 4.1 8 Oeste 13 Oeste 0 -- -- 86
2019-11-14 19:00:00 4.1 12 Sur 14 Sur 0 -- -- 83
2019-11-14 18:00:00 5.5 3 Sur 14 Sudoeste 0 -- -- 76
2019-11-14 17:00:00 7.4 13 Sudoeste 22 Oeste 0 -- -- 70
2019-11-14 16:00:00 7.7 7 Sudoeste 19 Oeste 0.2 -- -- 73
2019-11-14 15:00:00 8.5 18 Noroeste 37 Noroeste 0 -- -- 66
2019-11-14 14:00:00 10.3 13 Sudoeste 26 Oeste 0 -- -- 60
2019-11-14 13:00:00 8.6 5 Sur 12 Oeste 0 -- -- 67
2019-11-14 12:00:00 7.8 5 Oeste 10 Oeste 0 -- -- 73
2019-11-14 11:00:00 6.9 3 Nordeste 13 Sur 0 -- -- 76
2019-11-14 10:00:00 5.1 4 Sur 8 Sur 0 -- -- 87
2019-11-14 09:00:00 3.5 4 Sudeste 13 Este 0 -- -- 91
2019-11-14 08:00:00 3.8 2 Nordeste 17 Nordeste 0.2 -- -- 88
2019-11-14 07:00:00 4.3 9 Norte 17 Norte 0.4 -- -- 88
2019-11-14 06:00:00 4.9 4 Norte 17 Norte 2 -- -- 91
2019-11-14 05:00:00 5.5 5 Sur 9 Sur 2.2 -- -- 94
2019-11-14 04:00:00 5.5 2 Oeste 6 Oeste 0.6 -- -- 92
2019-11-14 03:00:00 5.6 0 Calma 7 Oeste 0 -- -- 89
2019-11-14 02:00:00 6.2 4 Noroeste 15 Sur 0 -- -- 85
2019-11-14 01:00:00 5.6 4 Sudoeste 13 Sur 0 -- -- 88
2019-11-14 00:00:00 4.9 6 Sur 10 Sur 0 -- -- 91
2019-11-13 23:00:00 4.6 6 Sudoeste 12 Sudoeste 0 -- -- 88
2019-11-13 22:00:00 5.6 4 Sudoeste 8 Sudoeste 0 -- -- 87
2019-11-13 21:00:00 6 5 Sudoeste 9 Sudoeste 0 -- -- 86
2019-11-13 20:00:00 6.9 5 Oeste 9 Noroeste 0 -- -- 80
2019-11-13 19:00:00 7.9 6 Sudeste 8 Sudeste 0 -- -- 77
2019-11-13 18:00:00 8.5 3 Sudeste 10 Sur 0 -- -- 72
2019-11-13 17:00:00 10.3 5 Oeste 27 Noroeste 0 -- -- 65
2019-11-13 16:00:00 11.4 15 Noroeste 35 Noroeste 0 -- -- 59
2019-11-13 15:00:00 11.9 18 Noroeste 42 Nordeste 0 -- -- 57
2019-11-13 14:00:00 10.7 12 Noroeste 32 Nordeste 0 -- -- 71
2019-11-13 13:00:00 12.3 12 Norte 37 Noroeste 0 -- -- 64
2019-11-13 12:00:00 11.7 14 Noroeste 28 Noroeste 0 -- -- 67
2019-11-13 11:00:00 11.7 13 Noroeste 26 Noroeste 0 -- -- 72
2019-11-13 10:00:00 10.1 15 Norte 36 Noroeste 0 -- -- 77
2019-11-13 09:00:00 8.5 13 Noroeste 31 Noroeste 0 -- -- 84
2019-11-13 08:00:00 8.1 13 Noroeste 24 Norte 0 -- -- 89
2019-11-13 07:00:00 7.2 6 Oeste 10 Noroeste 0.4 -- -- 96
2019-11-13 06:00:00 7.1 3 Sur 6 Oeste 0.8 -- -- 96
2019-11-13 05:00:00 7.1 2 Noroeste 3 Oeste 0 -- -- 96
2019-11-13 04:00:00 7.1 0 Calma 4 Noroeste 0.2 -- -- 95
2019-11-13 03:00:00 7.2 0 Calma 4 Oeste 0.2 -- -- 93
2019-11-13 02:00:00 7.2 5 Oeste 8 Oeste 0 -- -- 92
2019-11-13 01:00:00 7.2 4 Noroeste 6 Noroeste 0 -- -- 91
2019-11-13 00:00:00 7.6 2 Este 9 Sudoeste 0 -- -- 88
2019-11-12 23:00:00 8.4 0 Calma 15 Oeste 0 -- -- 81
2019-11-12 22:00:00 8.1 6 Oeste 17 Oeste 0 -- -- 85
2019-11-12 21:00:00 7.8 3 Sudoeste 11 Noroeste 0 -- -- 88
2019-11-12 20:00:00 8.3 4 Sudeste 9 Sudeste 0 -- -- 84
2019-11-12 19:00:00 8.7 6 Sudeste 8 Sudeste 0 -- -- 82
2019-11-12 18:00:00 9.9 4 Norte 8 Sudeste 0 -- -- 75
2019-11-12 17:00:00 10.5 2 Este 20 Norte 0 -- -- 75
2019-11-12 16:00:00 10.9 8 Noroeste 25 Noroeste 0 -- -- 70
2019-11-12 15:00:00 10.8 13 Noroeste 26 Noroeste 0 -- -- 70
2019-11-12 14:00:00 10.5 9 Noroeste 29 Noroeste 0 -- -- 72
2019-11-12 13:00:00 11.5 14 Noroeste 27 Noroeste 0 -- -- 67
2019-11-12 12:00:00 9.9 9 Noroeste 26 Norte 0 -- -- 73
2019-11-12 11:00:00 8.9 12 Norte 25 Norte 0 -- -- 79
2019-11-12 10:00:00 8.6 6 Noroeste 19 Norte 0 -- -- 78
2019-11-12 09:00:00 8.2 10 Norte 23 Noroeste 0 -- -- 79
2019-11-12 08:00:00 6.8 2 Nordeste 12 Noroeste 0 -- -- 88
2019-11-12 07:00:00 7 3 Noroeste 15 Noroeste 0 -- -- 87
2019-11-12 06:00:00 7.1 3 Nordeste 19 Noroeste 0 -- -- 86
2019-11-12 05:00:00 6.7 3 Norte 18 Noroeste 0 -- -- 84
2019-11-12 04:00:00 6.9 11 Norte 27 Norte 0 -- -- 82
2019-11-12 03:00:00 6.9 15 Noroeste 31 Noroeste 0 -- -- 80
2019-11-12 02:00:00 7 14 Noroeste 24 Noroeste 0 -- -- 80
2019-11-12 01:00:00 6.9 13 Noroeste 33 Noroeste 0 -- -- 79
2019-11-12 00:00:00 7.3 21 Noroeste 36 Norte 0 -- -- 78
2019-11-11 23:00:00 7.3 19 Noroeste 31 Noroeste 0 -- -- 76
2019-11-11 22:00:00 7.1 17 Noroeste 31 Noroeste 0 -- -- 77
2019-11-11 21:00:00 7.4 16 Noroeste 30 Noroeste 0 -- -- 79
2019-11-11 20:00:00 7.4 12 Noroeste 28 Norte 0 -- -- 77
2019-11-11 19:00:00 7.8 15 Noroeste 34 Noroeste 0 -- -- 76
2019-11-11 18:00:00 7.9 15 Norte 54 Noroeste 0 -- -- 79
2019-11-11 17:00:00 9.1 18 Noroeste 40 Noroeste 0 -- -- 72
2019-11-11 16:00:00 9.2 27 Noroeste 51 Noroeste 0.2 -- -- 81
2019-11-11 15:00:00 8.7 13 Noroeste 25 Noroeste 0 -- -- 91
2019-11-11 14:00:00 8.2 4 Noroeste 10 Oeste 0.4 -- -- 92
2019-11-11 13:00:00 7.8 2 Nordeste 9 Noroeste 0.4 -- -- 93
2019-11-11 12:00:00 6.8 3 Noroeste 6 Noroeste 0.2 -- -- 94
2019-11-11 11:00:00 6 2 Noroeste 9 Este 0 -- -- 90
2019-11-11 10:00:00 5.2 4 Este 10 Sudeste 0 -- -- 91
2019-11-11 09:00:00 4.2 0 Calma 9 Este 0 -- -- 94
2019-11-11 08:00:00 3.5 3 Sudeste 4 Sudeste 0 -- -- 95
2019-11-11 07:00:00 3.4 2 Este 6 Nordeste 0 -- -- 94
2019-11-11 06:00:00 3.3 4 Sur 6 Este 0 -- -- 94
2019-11-11 05:00:00 3.6 5 Norte 13 Noroeste 0 -- -- 90
2019-11-11 04:00:00 3.4 0 Calma 8 Sudeste 0 -- -- 93
2019-11-11 03:00:00 3.6 3 Este 12 Oeste 0 -- -- 89
2019-11-11 02:00:00 4 4 Sudoeste 9 Sudoeste 0 -- -- 88
2019-11-11 01:00:00 3.8 5 Norte 16 Noroeste 0 -- -- 88
2019-11-11 00:00:00 4.4 6 Oeste 23 Oeste 0 -- -- 85
2019-11-10 23:00:00 4.1 10 Oeste 27 Noroeste 0 -- -- 86
2019-11-10 22:00:00 4.7 16 Noroeste 23 Noroeste 0 -- -- 82
2019-11-10 21:00:00 4.1 5 Noroeste 17 Noroeste 0 -- -- 84
2019-11-10 20:00:00 4.2 6 Norte 17 Noroeste 0 -- -- 85
2019-11-10 19:00:00 4.5 6 Noroeste 22 Noroeste 0 -- -- 85
2019-11-10 18:00:00 4.4 10 Noroeste 24 Noroeste 0 -- -- 88
2019-11-10 17:00:00 4.8 9 Noroeste 23 Noroeste 0.2 -- -- 90
2019-11-10 16:00:00 5.4 10 Noroeste 19 Oeste 0 -- -- 87
2019-11-10 15:00:00 5.1 11 Noroeste 22 Noroeste 0.6 -- -- 90
2019-11-10 14:00:00 5.6 12 Oeste 21 Oeste 0.4 -- -- 91
2019-11-10 13:00:00 5.1 3 Noroeste 21 Oeste 0.6 -- -- 92
2019-11-10 12:00:00 5.1 11 Oeste 22 Oeste 0 -- -- 92
2019-11-10 11:00:00 4.1 4 Noroeste 7 Noroeste 0.2 -- -- 95
2019-11-10 10:00:00 3 3 Sudeste 8 Oeste 1.6 -- -- 95
2019-11-10 09:00:00 2.8 2 Este 18 Noroeste 3.2 -- -- 93
2019-11-10 08:00:00 3.4 8 Oeste 22 Oeste 0.8 -- -- 92
2019-11-10 07:00:00 3.5 12 Oeste 26 Oeste 3.4 -- -- 90
2019-11-10 06:00:00 4 5 Noroeste 23 Oeste 3.2 -- -- 92
2019-11-10 05:00:00 4.8 13 Oeste 24 Oeste 1 -- -- 91
2019-11-10 04:00:00 5.1 13 Noroeste 38 Noroeste 0.8 -- -- 88
2019-11-10 03:00:00 5.4 10 Norte 27 Noroeste 0.4 -- -- 87
2019-11-10 02:00:00 5.5 16 Noroeste 38 Noroeste 0.6 -- -- 86
2019-11-10 01:00:00 6 4 Sur 14 Norte 0 -- -- 91
2019-11-10 00:00:00 6.4 8 Norte 25 Norte 0 -- -- 86
2019-11-09 23:00:00 6.5 6 Nordeste 35 Noroeste 0.2 -- -- 87
2019-11-09 22:00:00 7.5 11 Norte 32 Norte 1 -- -- 86
2019-11-09 21:00:00 8 10 Sudoeste 14 Sudoeste 0 -- -- 95
2019-11-09 20:00:00 8 5 Sudoeste 9 Sur 0.2 -- -- 93
2019-11-09 19:00:00 8.3 2 Sudoeste 6 Sudeste 0.4 -- -- 92
2019-11-09 18:00:00 8.9 2 Noroeste 5 Sur 0 -- -- 89
2019-11-09 17:00:00 9.1 2 Noroeste 19 Oeste 0 -- -- 85
2019-11-09 16:00:00 9.5 9 Oeste 31 Sudoeste 0.4 -- -- 83
2019-11-09 15:00:00 10.5 7 Oeste 15 Noroeste 0 -- -- 77
2019-11-09 14:00:00 9.6 6 Oeste 17 Noroeste 0.2 -- -- 79
2019-11-09 13:00:00 10.3 9 Noroeste 23 Oeste 0 -- -- 75
2019-11-09 12:00:00 10.4 11 Oeste 24 Oeste 0 -- -- 76
2019-11-09 11:00:00 9.3 5 Noroeste 23 Oeste 0 -- -- 83
2019-11-09 10:00:00 8.8 5 Noroeste 21 Oeste 0 -- -- 84
2019-11-09 09:00:00 7 9 Oeste 20 Oeste 0 -- -- 91
2019-11-09 08:00:00 6.4 13 Oeste 24 Oeste 0 -- -- 91
2019-11-09 07:00:00 6.1 6 Oeste 22 Noroeste 0.2 -- -- 93
2019-11-09 06:00:00 6 7 Oeste 18 Oeste 0 -- -- 92
2019-11-09 05:00:00 5.8 8 Oeste 17 Oeste 0.2 -- -- 93
2019-11-09 04:00:00 6 11 Oeste 21 Oeste 0.2 -- -- 91
2019-11-09 03:00:00 5.8 15 Oeste 30 Oeste 0 -- -- 91
2019-11-09 02:00:00 5.7 15 Oeste 24 Oeste 0.2 -- -- 92
2019-11-09 01:00:00 5.8 13 Oeste 27 Oeste 1.4 -- -- 91
2019-11-09 00:00:00 5.9 17 Oeste 30 Noroeste 0.6 -- -- 91
2019-11-08 23:00:00 5.8 6 Oeste 33 Oeste 1.8 -- -- 90
2019-11-08 22:00:00 5.9 15 Oeste 26 Oeste 3 -- -- 91
2019-11-08 21:00:00 5.7 16 Oeste 31 Noroeste 3.2 -- -- 93
2019-11-08 20:00:00 5.5 17 Oeste 33 Oeste 1 -- -- 92
2019-11-08 19:00:00 4.8 5 Nordeste 27 Oeste 1.4 -- -- 93
2019-11-08 18:00:00 4.2 3 Sudeste 15 Oeste 0.6 -- -- 94
2019-11-08 17:00:00 4.4 10 Oeste 30 Oeste 1.4 -- -- 92
2019-11-08 16:00:00 4.6 10 Oeste 28 Noroeste 0.6 -- -- 91
2019-11-08 15:00:00 4.9 11 Oeste 43 Oeste 1.8 -- -- 91
2019-11-08 14:00:00 5.8 18 Oeste 41 Noroeste 0.2 -- -- 87
2019-11-08 13:00:00 6.5 18 Oeste 37 Oeste 1 -- -- 87
2019-11-08 12:00:00 6.5 22 Oeste 35 Oeste 0 -- -- 83
2019-11-08 11:00:00 6 11 Oeste 24 Oeste 0.4 -- -- 85
2019-11-08 10:00:00 5.4 3 Oeste 12 Oeste 0.2 -- -- 89
2019-11-08 09:00:00 4.9 5 Sudoeste 19 Oeste 0.2 -- -- 90
2019-11-08 08:00:00 4.1 7 Sudoeste 16 Oeste 0.2 -- -- 91
2019-11-08 07:00:00 3.8 11 Oeste 19 Oeste 0 -- -- 98
2019-11-08 06:00:00 3 3 Sudoeste 6 Sudoeste 0.2 -- -- 97
2019-11-08 05:00:00 2.5 5 Sudeste 10 Sudoeste 0.2 -- -- 97
2019-11-08 04:00:00 1.6 2 Sudoeste 11 Sudoeste 0 -- -- 96
2019-11-08 03:00:00 1.4 3 Noroeste 8 Oeste 0 -- -- 95
2019-11-08 02:00:00 1.8 5 Oeste 11 Este 0 -- -- 95
2019-11-08 01:00:00 1.8 5 Sudoeste 15 Sur 0 -- -- 94
2019-11-08 00:00:00 1.8 7 Sudoeste 12 Sur 0 -- -- 93